Last 48 Hours

Top of 15 - 9,047ft

15 Minute Data | America/Los_Angeles
as of 9/4/26 1:23 AM PDT
Date & Time Temp (°F) WindChill (°F) RH (%) Dew Pt (°F) Wet Bulb (°F) Wind Dir (°) Wind Spd (mph) Wind Gust (mph) Wind Gst Dir (°) Daily Min Temp (°F) Daily Max Temp (°F) Daily Max Wind (mph)
9/4/26 - 0115 38.0 33.1 83 33.2 36.1 SW | 224 6.5 22.6 SSW | 204 37.8 38.2 22.6
9/4/26 - 0100 38.0 31.2 82 33.0 36.0 SW | 224 9.9 25.4 WSW | 249 37.8 52.4 34.7
9/4/26 - 0045 38.1 32.6 82 33.1 36.1 SSW | 209 7.5 23.2 WSW | 245 38.0 52.4 34.7
9/4/26 - 0030 38.2 34.0 82 33.1 36.1 SW | 214 5.5 25.4 SW | 223 38.1 52.4 34.7
9/4/26 - 0015 38.3 32.7 80 32.7 36.0 SW | 220 7.7 28.4 WSW | 255 38.1 52.4 34.7
9/4/26 - 0000 38.4 32.3 80 32.8 36.2 SW | 214 8.6 24.6 SSW | 202 38.1 52.4 34.7
9/3/26 - 2345 38.3 31.6 81 33.0 36.2 SW | 218 10.0 24.0 SSW | 202 38.1 52.4 34.7
9/3/26 - 2330 38.2 32.7 82 33.3 36.2 SW | 220 7.6 32.8 SSE | 148 38.1 52.4 34.7
9/3/26 - 2315 38.3 35.6 81 33.0 36.2 SW | 228 3.8 22.6 WSW | 240 38.3 52.4 34.7
9/3/26 - 2300 38.5 36.1 80 33.0 36.3 SW | 218 3.5 18.2 WSW | 248 38.3 52.4 34.7
9/3/26 - 2245 38.5 36.6 81 33.2 36.4 SW | 229 3.1 12.1 W | 277 38.3 52.4 34.7
9/3/26 - 2230 38.7 33.6 82 33.6 36.6 SSW | 212 7.1 21.1 SW | 232 38.5 52.4 34.7
9/3/26 - 2215 39.0 33.6 83 34.2 37.0 SW | 224 7.5 33.2 W | 265 38.8 52.4 34.7
9/3/26 - 2200 39.1 33.3 84 34.7 37.3 SW | 218 8.4 22.1 WSW | 246 38.9 52.4 34.7
9/3/26 - 2145 39.2 34.2 84 34.9 37.5 SSW | 210 7.0 24.3 SSW | 201 39.0 52.4 34.7
9/3/26 - 2130 39.5 34.4 83 34.8 37.6 SW | 222 7.3 22.9 SW | 228 39.4 52.4 34.7
9/3/26 - 2115 39.5 36.8 83 34.9 37.7 SW | 234 4.0 19.7 WSW | 253 39.4 52.4 34.7
9/3/26 - 2100 39.8 36.8 82 34.7 37.7 SSW | 205 4.4 18.3 SW | 224 39.6 52.4 34.7
9/3/26 - 2045 40.0 36.0 81 34.7 37.8 SW | 224 5.7 18.4 WSW | 242 39.8 52.4 34.7
9/3/26 - 2030 40.3 35.8 80 34.6 38.0 SW | 226 6.5 22.9 WSW | 254 40.0 52.4 34.7
9/3/26 - 2015 40.5 35.5 78 34.4 38.0 WSW | 239 7.6 25.8 WSW | 238 40.5 52.4 34.7
9/3/26 - 2000 40.8 34.9 76 33.8 38.0 SW | 230 9.4 22.4 WSW | 257 40.6 52.4 34.7
9/3/26 - 1945 41.3 35.1 74 33.6 38.1 SW | 230 10.4 24.7 WSW | 239 41.0 52.4 34.7
9/3/26 - 1930 41.9 36.6 72 33.4 38.4 SW | 233 8.7 21.4 WSW | 240 41.0 52.4 34.7
9/3/26 - 1915 42.5 37.5 69 33.2 38.6 WSW | 237 8.2 21.4 SSW | 212 41.0 52.4 34.7
9/3/26 - 1900 43.0 39.2 69 33.7 39.1 SW | 230 6.2 24.1 WSW | 238 41.0 52.4 34.7
9/3/26 - 1845 43.3 40.4 68 33.5 39.2 SW | 232 5.0 14.1 WSW | 243 41.0 52.4 34.7
9/3/26 - 1830 43.6 39.0 67 33.3 39.3 WSW | 239 8.0 20.5 WNW | 294 41.0 52.4 34.7
9/3/26 - 1815 44.1 39.6 65 33.2 39.5 SW | 223 8.0 31.4 SW | 232 41.0 52.4 34.7
9/3/26 - 1800 44.8 40.9 61 32.3 39.5 SW | 224 6.9 23.3 SW | 234 41.0 52.4 34.7
9/3/26 - 1745 45.8 43.3 57 31.6 39.8 SSW | 207 5.0 19.6 WNW | 287 41.0 52.4 34.7
9/3/26 - 1730 46.0 42.4 56 31.2 39.7 SW | 232 6.8 25.3 WSW | 242 41.0 52.4 34.7
9/3/26 - 1715 46.7 43.4 52 29.8 39.6 SW | 228 6.5 22.3 WSW | 258 41.0 52.4 34.7
9/3/26 - 1700 47.3 44.0 50 29.4 39.8 WSW | 240 6.7 21.0 SW | 217 41.0 52.4 34.7
9/3/26 - 1645 47.6 45.8 49 29.6 40.0 SW | 221 4.4 16.8 WSW | 248 41.0 52.4 34.7
9/3/26 - 1630 48.0 44.6 47 28.8 40.0 SW | 224 7.4 19.0 WSW | 238 41.0 52.4 34.7
9/3/26 - 1615 48.2 44.1 46 28.2 39.9 SW | 228 9.2 34.7 WNW | 299 41.0 52.4 34.7
9/3/26 - 1600 48.4 44.5 43 27.0 39.6 SW | 229 8.5 20.8 SW | 224 41.0 52.4 31.7
9/3/26 - 1545 48.9 45.8 43 27.2 39.9 SW | 216 7.1 23.0 SW | 221 41.0 52.4 31.7
9/3/26 - 1530 49.2 47.3 39 25.1 39.4 SW | 217 5.0 17.1 WSW | 253 41.0 52.4 31.7
9/3/26 - 1515 49.3 46.2 38 24.6 39.3 SW | 218 7.2 21.8 WSW | 255 41.0 52.4 31.7
9/3/26 - 1500 50.0 - 36 24.1 39.5 SW | 216 7.8 22.9 WSW | 242 41.0 52.4 31.7
9/3/26 - 1445 50.1 - 34 23.0 39.3 SSW | 206 6.8 26.8 SSW | 206 41.0 52.4 31.7
9/3/26 - 1430 50.5 - 33 22.7 39.4 SSW | 208 8.8 22.8 SSW | 210 41.0 52.4 31.7
9/3/26 - 1415 50.6 - 33 22.7 39.5 SW | 222 9.3 31.7 WSW | 248 41.0 51.9 31.7
9/3/26 - 1400 49.9 46.4 35 23.3 39.3 SW | 222 8.7 22.8 SW | 230 41.0 51.1 31.4
9/3/26 - 1345 49.7 46.7 35 23.2 39.1 SW | 219 7.3 21.7 WSW | 247 41.0 51.1 31.4
9/3/26 - 1330 49.8 47.0 35 23.4 39.2 SW | 215 6.8 22.2 S | 176 41.0 51.1 31.4
9/3/26 - 1315 49.3 45.9 35 22.8 38.8 SW | 223 8.1 25.9 SW | 235 41.0 50.5 31.4
9/3/26 - 1300 49.5 45.4 35 22.9 38.9 SW | 229 10.0 31.4 WSW | 241 41.0 50.5 31.4
9/3/26 - 1245 49.0 44.8 34 22.1 38.5 SW | 217 10.2 28.8 WSW | 253 41.0 50.5 29.1
9/3/26 - 1230 49.2 45.4 34 21.7 38.5 SSW | 202 8.9 23.1 WSW | 238 41.0 50.5 29.1
9/3/26 - 1215 49.4 46.4 33 21.4 38.5 SSW | 211 7.1 20.6 W | 259 41.0 50.5 29.1
9/3/26 - 1200 48.9 45.5 32 20.3 38.0 SSW | 194 7.8 20.3 S | 169 41.0 49.7 29.1
9/3/26 - 1145 48.4 44.4 32 19.8 37.6 SSW | 212 9.1 29.1 SSW | 193 41.0 49.4 29.1
9/3/26 - 1130 47.9 44.5 32 19.8 37.3 SSW | 201 7.2 22.6 SSE | 151 41.0 49.0 28.8
9/3/26 - 1115 47.4 44.8 32 18.6 36.8 SSW | 195 5.6 17.6 SE | 141 41.0 48.5 28.8
9/3/26 - 1100 47.1 43.7 30 17.5 36.3 SSW | 202 7.0 28.8 SSW | 204 41.0 48.3 28.8
9/3/26 - 1045 47.1 43.7 32 18.5 36.6 SSW | 204 6.9 27.1 SSW | 198 41.0 48.3 27.8
9/3/26 - 1030 47.1 43.7 33 19.4 36.8 SW | 220 6.9 22.2 SW | 225 41.0 47.9 27.8
9/3/26 - 1015 47.0 43.6 32 18.9 36.6 SW | 223 6.8 27.8 SSW | 202 41.0 47.9 27.8
9/3/26 - 1000 46.9 42.4 32 18.3 36.4 SW | 223 9.2 23.9 WSW | 246 41.0 47.7 24.4
9/3/26 - 0945 46.7 42.3 30 17.2 36.0 SW | 218 8.9 24.4 WSW | 255 41.0 47.7 24.4
9/3/26 - 0930 45.7 42.3 30 16.2 35.3 SW | 215 6.3 21.5 WSW | 243 41.0 46.4 21.5
9/3/26 - 0915 45.1 42.3 31 16.5 35.0 SSW | 211 5.2 17.4 SW | 223 41.0 46.3 20.6
9/3/26 - 0900 44.2 39.9 34 17.5 34.8 SW | 223 7.7 20.6 SSW | 197 41.0 45.9 20.6
9/3/26 - 0845 44.2 40.6 35 18.4 34.9 SW | 220 6.2 14.9 SSW | 202 41.0 45.9 18.9
9/3/26 - 0830 43.6 38.8 38 19.8 35.0 SSW | 208 8.4 18.4 SW | 219 41.0 45.9 18.9
9/3/26 - 0815 43.2 40.2 37 18.3 34.4 SW | 227 5.0 15.0 WNW | 296 41.0 45.9 18.9
9/3/26 - 0800 42.7 39.2 35 16.6 33.7 SW | 224 5.5 14.7 SW | 226 41.0 45.9 18.9
9/3/26 - 0745 42.9 40.8 29 12.5 33.0 SSW | 200 4.0 14.2 SW | 230 41.0 45.9 18.9
9/3/26 - 0730 43.2 41.2 26 10.4 32.7 SSW | 195 3.7 14.2 SSW | 207 41.0 45.9 18.9
9/3/26 - 0715 43.0 41.6 25 9.3 32.5 SSW | 201 3.2 16.7 SW | 225 41.0 45.9 18.9
9/3/26 - 0700 42.5 41.1 27 10.6 32.4 SSW | 194 3.0 13.8 SSW | 195 41.0 45.9 18.9
9/3/26 - 0645 42.0 39.5 28 11.1 32.2 S | 191 4.1 14.4 SSW | 208 41.0 45.9 18.9
9/3/26 - 0630 41.6 39.4 30 12.2 32.1 SSW | 201 3.8 11.1 SSW | 192 41.0 45.9 18.9
9/3/26 - 0615 41.9 - 28 11.0 32.1 SSW | 194 2.0 10.7 SSE | 163 41.0 45.9 18.9
9/3/26 - 0600 42.4 40.9 24 7.8 31.8 SSW | 202 3.2 13.0 WNW | 289 41.0 45.9 18.9
9/3/26 - 0545 42.6 - 23 7.0 31.8 SSW | 197 2.7 11.4 WNW | 294 41.0 45.9 18.9
9/3/26 - 0530 42.4 39.4 25 8.7 32.0 SSW | 213 4.8 16.8 WSW | 250 41.0 45.9 18.9
9/3/26 - 0515 41.8 39.9 30 12.1 32.2 SSW | 211 3.5 13.9 SSW | 194 41.0 45.9 18.9
9/3/26 - 0500 41.7 - 32 13.7 32.5 SE | 146 2.5 9.5 ESE | 119 41.0 45.9 18.9
9/3/26 - 0445 41.4 - 35 16.1 32.8 E | 84 2.9 12.2 NW | 307 41.0 45.9 18.9
9/3/26 - 0430 41.2 - 38 17.4 33.0 NNE | 22 2.8 12.4 SSW | 199 41.1 45.9 18.9
9/3/26 - 0415 41.4 - 36 16.2 32.9 ENE | 67 2.3 14.2 SSW | 197 41.3 45.9 18.9
9/3/26 - 0400 41.5 39.4 35 15.6 32.8 NNE | 16 3.6 16.0 N | 4 41.4 45.9 18.9
9/3/26 - 0345 41.6 - 34 15.3 32.8 NW | 312 1.3 5.2 SW | 221 41.5 45.9 18.9
9/3/26 - 0330 41.8 40.1 34 15.5 32.9 S | 182 3.2 18.9 SW | 223 41.6 45.9 18.9
9/3/26 - 0315 42.1 - 34 15.7 33.1 WSW | 254 2.9 12.8 SSW | 212 41.6 45.9 15.7
9/3/26 - 0300 42.5 40.7 33 15.2 33.2 NNE | 23 3.5 12.6 N | 8 41.9 45.9 15.7
9/3/26 - 0245 42.9 41.5 30 13.8 33.2 NE | 48 3.1 15.6 NNE | 12 41.9 45.9 15.7
9/3/26 - 0230 43.0 - 32 15.1 33.5 NE | 49 2.9 7.9 E | 87 41.9 45.9 15.7
9/3/26 - 0215 42.7 - 33 15.4 33.4 E | 93 2.6 8.8 SW | 223 41.9 45.9 15.7
9/3/26 - 0200 42.9 - 33 16.0 33.7 S | 176 2.3 8.2 ESE | 117 42.3 45.9 15.7
9/3/26 - 0145 43.4 - 32 15.6 33.9 E | 94 2.2 15.7 S | 178 43.2 45.9 15.7
9/3/26 - 0130 44.9 - 25 10.6 33.8 E | 86 2.0 9.2 ESE | 107 43.8 45.9 9.9
9/3/26 - 0115 45.3 - 23 9.3 33.8 SE | 131 2.1 9.9 SE | 125 44.9 45.9 9.9
9/3/26 - 0100 45.6 41.0 24 10.3 34.1 SW | 219 9.0 25.6 WSW | 257 35.6 49.2 38.0
9/3/26 - 0045 45.9 41.2 26 12.6 34.7 SSW | 213 9.4 30.0 WSW | 254 35.6 49.2 38.0
9/3/26 - 0030 46.3 41.4 27 14.2 35.2 SW | 223 10.3 24.5 WSW | 244 35.6 49.2 38.0
9/3/26 - 0015 46.2 41.0 28 14.6 35.2 SW | 234 10.7 24.0 WSW | 250 35.6 49.2 38.0
9/3/26 - 0000 46.0 41.0 26 12.6 34.7 SW | 235 10.4 24.1 WSW | 251 35.6 49.2 38.0
9/2/26 - 2345 45.0 39.1 29 14.7 34.6 WSW | 248 12.1 24.0 WSW | 249 35.6 49.2 38.0
9/2/26 - 2330 44.6 39.0 33 17.4 35.0 WSW | 250 11.0 23.3 WSW | 248 35.6 49.2 38.0
9/2/26 - 2315 44.8 40.1 34 18.1 35.2 WSW | 241 8.8 21.0 WSW | 246 35.6 49.2 38.0
9/2/26 - 2300 44.2 39.2 34 17.6 34.8 WSW | 241 9.3 20.1 WSW | 258 35.6 49.2 38.0
9/2/26 - 2245 43.6 38.3 41 21.2 35.4 WSW | 248 9.6 19.4 WSW | 258 35.6 49.2 38.0
9/2/26 - 2230 43.2 37.9 46 23.9 35.8 WSW | 251 9.1 25.6 WSW | 244 35.6 49.2 38.0
9/2/26 - 2215 43.1 38.3 53 26.9 36.7 WSW | 250 8.1 15.9 WNW | 297 35.6 49.2 38.0
9/2/26 - 2200 41.8 36.6 62 29.7 36.9 WSW | 245 8.3 17.5 SW | 236 35.6 49.2 38.0
9/2/26 - 2145 41.4 35.8 61 29.1 36.5 WSW | 246 9.2 18.7 WSW | 243 35.6 49.2 38.0
9/2/26 - 2130 41.2 36.0 60 28.3 36.1 WSW | 248 8.2 19.3 SW | 235 35.6 49.2 38.0
9/2/26 - 2115 41.2 36.1 59 27.9 36.0 WSW | 247 8.0 17.3 SW | 232 35.6 49.2 38.0
9/2/26 - 2100 41.4 36.0 58 27.5 35.9 WSW | 240 8.4 15.5 SW | 227 35.6 49.2 38.0
9/2/26 - 2045 40.6 38.0 60 27.9 35.6 SW | 220 4.1 16.3 W | 260 35.6 49.2 38.0
9/2/26 - 2030 40.3 38.4 65 29.5 36.0 SSW | 202 3.2 13.7 W | 260 35.6 49.2 38.0
9/2/26 - 2015 40.3 36.0 66 30.0 36.2 WSW | 241 6.2 16.4 W | 278 35.6 49.2 38.0
9/2/26 - 2000 40.6 38.0 65 29.6 36.2 SW | 233 4.0 13.4 W | 264 35.6 49.2 38.0
9/2/26 - 1945 41.1 39.2 62 29.2 36.3 SW | 228 3.4 11.9 W | 269 35.6 49.2 38.0
9/2/26 - 1930 41.6 - 58 27.9 36.2 SSW | 199 2.2 8.6 S | 185 35.6 49.2 38.0
9/2/26 - 1915 42.1 39.1 55 27.1 36.2 SW | 225 4.8 21.4 WSW | 242 35.6 49.2 38.0
9/2/26 - 1900 42.7 37.9 47 24.1 35.6 SW | 233 7.9 19.3 WSW | 242 35.6 49.2 38.0
9/2/26 - 1845 43.1 38.6 48 24.6 36.0 SW | 235 7.6 22.1 W | 259 35.6 49.2 38.0
9/2/26 - 1830 43.3 39.0 47 24.6 36.1 WSW | 241 7.3 23.0 W | 265 35.6 49.2 38.0
9/2/26 - 1815 43.6 39.8 48 24.9 36.4 WSW | 244 6.3 21.0 WSW | 239 35.6 49.2 38.0
9/2/26 - 1800 43.9 39.5 47 25.2 36.6 WSW | 250 7.7 20.3 W | 263 35.6 49.2 38.0
9/2/26 - 1745 45.0 42.3 43 24.1 36.9 WSW | 241 5.1 15.1 SW | 232 35.6 49.2 38.0
9/2/26 - 1730 45.4 41.9 45 25.1 37.4 SW | 232 6.5 19.8 WSW | 253 35.6 49.2 38.0
9/2/26 - 1715 45.7 42.7 44 25.0 37.6 SW | 234 5.9 18.9 W | 264 35.6 49.2 38.0
9/2/26 - 1700 45.9 41.4 42 24.1 37.4 WSW | 254 8.8 23.0 WSW | 238 35.6 49.2 38.0
9/2/26 - 1645 46.3 41.8 42 24.8 37.8 WSW | 250 9.2 26.8 WSW | 241 35.6 49.2 38.0
9/2/26 - 1630 46.5 42.0 42 24.4 37.8 WSW | 251 9.3 24.1 W | 262 35.6 49.2 38.0
9/2/26 - 1615 46.7 44.2 43 25.5 38.2 WSW | 240 5.1 19.2 WSW | 256 35.6 49.2 38.0
9/2/26 - 1600 46.7 44.1 44 26.1 38.4 WSW | 254 5.4 18.5 WNW | 290 35.6 49.2 38.0
9/2/26 - 1545 46.6 44.2 46 26.8 38.6 WSW | 240 5.1 19.7 WSW | 245 35.6 49.2 38.0
9/2/26 - 1530 46.8 44.2 46 27.0 38.7 SW | 220 5.4 20.0 SW | 222 35.6 49.2 38.0
9/2/26 - 1515 47.0 43.7 46 27.1 38.9 SW | 228 6.8 26.3 S | 172 35.6 49.2 38.0
9/2/26 - 1500 47.5 43.7 44 26.9 39.1 SW | 223 8.2 23.7 SSW | 204 35.6 49.2 38.0
9/2/26 - 1445 46.7 44.2 45 26.4 38.5 SSW | 196 5.3 20.8 SSW | 203 35.6 49.2 38.0
9/2/26 - 1430 46.9 44.7 44 26.1 38.5 SW | 217 4.7 25.5 SW | 225 35.6 49.2 38.0
9/2/26 - 1415 46.5 43.4 45 26.3 38.4 SW | 226 6.2 21.9 SW | 226 35.6 49.2 38.0
9/2/26 - 1400 46.6 43.2 45 26.5 38.5 SSW | 210 6.8 25.2 S | 191 35.6 49.2 38.0
9/2/26 - 1345 46.1 42.4 46 26.5 38.2 SW | 218 7.2 19.8 WSW | 258 35.6 49.2 38.0
9/2/26 - 1330 45.9 43.5 45 25.8 37.9 SSW | 205 4.8 22.4 WSW | 254 35.6 49.2 38.0
9/2/26 - 1315 46.2 43.0 44 25.2 37.9 SW | 216 6.3 21.1 S | 182 35.6 49.2 38.0
9/2/26 - 1300 46.9 42.4 42 25.1 38.2 SW | 219 9.5 24.9 WSW | 244 35.6 49.2 38.0
9/2/26 - 1245 47.1 43.1 42 25.2 38.4 SSW | 203 8.3 24.6 S | 183 35.6 49.2 38.0
9/2/26 - 1230 46.8 42.8 42 25.1 38.2 SW | 216 8.3 25.2 WSW | 241 35.6 49.2 38.0
9/2/26 - 1215 46.9 42.9 41 24.7 38.1 SSW | 208 8.2 19.7 SSW | 202 35.6 49.2 38.0
9/2/26 - 1200 47.1 43.5 40 24.2 38.0 SW | 214 7.4 24.9 WSW | 243 35.6 49.2 38.0
9/2/26 - 1145 46.4 41.9 40 23.4 37.4 SW | 224 9.0 27.2 WSW | 245 35.6 47.7 38.0
9/2/26 - 1130 46.3 41.9 40 23.1 37.3 SW | 220 8.8 30.6 WSW | 252 35.6 47.7 38.0
9/2/26 - 1115 45.5 40.3 40 22.9 36.8 SW | 229 10.5 25.2 SW | 221 35.6 46.9 38.0
9/2/26 - 1100 46.1 40.8 39 22.7 37.1 SW | 230 11.0 23.1 SW | 225 35.6 46.9 38.0
9/2/26 - 1045 45.2 40.2 40 22.2 36.5 SW | 225 9.7 20.4 W | 272 35.6 46.6 38.0
9/2/26 - 1030 45.0 41.6 40 21.9 36.3 SW | 215 6.1 21.4 W | 265 35.6 46.2 38.0
9/2/26 - 1015 44.6 40.4 41 22.1 36.1 SSW | 198 7.5 22.6 SSW | 196 35.6 45.5 38.0
9/2/26 - 1000 43.6 38.9 42 22.2 35.6 SSW | 195 8.1 21.1 SSW | 205 35.6 44.7 38.0
9/2/26 - 0945 42.5 37.0 44 22.2 35.0 SSW | 200 9.3 22.1 S | 189 35.6 43.5 38.0
9/2/26 - 0930 41.4 36.7 44 21.3 34.1 SSW | 212 7.1 19.9 SSW | 212 35.6 43.0 38.0
9/2/26 - 0915 39.0 32.1 46 19.9 32.3 SW | 225 10.7 24.2 WSW | 239 35.6 40.2 38.0
9/2/26 - 0900 37.8 30.9 46 18.9 31.4 SW | 226 10.0 25.2 SW | 225 35.6 39.8 38.0
9/2/26 - 0845 37.9 30.4 46 18.9 31.4 SW | 223 11.5 27.2 SW | 220 35.6 39.8 38.0
9/2/26 - 0830 38.1 31.9 45 18.7 31.5 SW | 221 8.7 18.8 WSW | 247 35.6 39.8 38.0
9/2/26 - 0815 37.6 30.7 46 18.5 31.1 SW | 223 9.9 26.2 SW | 234 35.6 39.8 38.0
9/2/26 - 0800 37.4 30.4 46 18.6 31.0 SW | 220 9.8 20.6 W | 269 35.6 39.8 38.0
9/2/26 - 0745 36.8 30.4 47 18.2 30.6 SW | 220 8.6 27.6 WSW | 249 35.6 39.8 38.0
9/2/26 - 0730 36.7 30.3 46 18.0 30.5 SW | 221 8.5 23.1 WSW | 242 35.6 39.8 38.0
9/2/26 - 0715 36.5 29.4 47 18.2 30.4 SW | 223 9.8 24.7 SSW | 205 35.6 39.8 38.0
9/2/26 - 0700 36.3 29.3 47 18.2 30.3 SW | 216 9.5 24.5 SW | 220 35.6 39.8 38.0
9/2/26 - 0645 36.2 30.3 47 17.8 30.1 SW | 218 7.4 22.6 SW | 231 35.6 39.8 38.0
9/2/26 - 0630 35.8 30.3 50 18.8 30.2 SSW | 213 6.8 20.3 SSW | 203 35.6 39.8 38.0
9/2/26 - 0615 36.0 29.5 49 18.6 30.2 SW | 229 8.3 22.4 WNW | 293 35.7 39.8 38.0
9/2/26 - 0600 36.2 30.4 48 18.6 30.3 SW | 222 7.2 22.5 WSW | 250 35.8 39.8 38.0
9/2/26 - 0545 36.3 30.6 50 19.2 30.5 SW | 225 7.1 29.3 W | 264 36.1 39.8 38.0
9/2/26 - 0530 36.2 29.0 54 21.2 31.0 SW | 234 9.8 23.0 WSW | 249 36.1 39.8 38.0
9/2/26 - 0515 36.4 28.6 57 22.5 31.4 SW | 235 11.3 28.4 SW | 235 36.1 39.8 38.0
9/2/26 - 0500 36.5 28.0 58 23.0 31.7 WSW | 240 13.3 34.8 WSW | 245 36.1 39.8 38.0
9/2/26 - 0445 36.7 28.4 58 23.2 31.9 WSW | 240 12.7 33.5 SW | 231 36.3 39.8 38.0
9/2/26 - 0430 37.3 30.7 55 22.6 32.0 SW | 235 9.0 26.8 SW | 236 36.7 39.8 38.0
9/2/26 - 0415 37.4 30.8 55 22.6 32.1 SW | 229 9.2 24.1 SW | 234 37.2 39.8 38.0
9/2/26 - 0400 37.8 31.6 51 21.4 32.0 SW | 219 8.7 27.7 SSW | 200 37.7 39.8 38.0
9/2/26 - 0345 38.0 30.2 49 20.6 31.9 SW | 232 12.4 24.6 SW | 228 37.8 39.8 38.0
9/2/26 - 0330 38.1 31.5 49 20.8 32.0 SW | 228 9.4 27.7 W | 264 37.9 39.8 38.0
9/2/26 - 0315 38.1 31.5 50 21.3 32.2 SW | 234 9.7 23.1 WNW | 293 38.0 39.8 38.0
9/2/26 - 0300 38.0 30.4 52 21.9 32.3 SW | 227 11.9 38.0 SSW | 208 38.0 39.8 38.0
9/2/26 - 0245 38.2 31.0 52 22.0 32.4 WSW | 238 10.9 28.8 W | 276 38.0 39.8 37.0
9/2/26 - 0230 38.6 31.7 50 21.6 32.5 SW | 234 10.4 24.7 S | 177 38.0 39.8 37.0
9/2/26 - 0215 39.1 30.9 45 19.8 32.4 SW | 235 14.3 34.5 WSW | 244 38.7 39.8 37.0
9/2/26 - 0200 39.1 31.4 45 19.4 32.3 SW | 233 12.9 29.9 WSW | 255 38.7 39.8 37.0
9/2/26 - 0145 39.3 31.3 43 18.9 32.2 SW | 222 13.7 33.0 S | 173 38.7 39.8 37.0
9/2/26 - 0130 39.6 31.2 43 18.6 32.3 SW | 227 15.1 37.0 WSW | 257 38.7 39.8 37.0
9/2/26 - 0115 39.0 31.0 45 19.3 32.2 SW | 230 13.7 33.0 SW | 231 38.7 39.6 33.0
Max 50.6 47.3 84 34.9 40.0 - 15.1 38.0 - 44.9 52.4 38.0
Avg 43.0 38.5 47 22.9 35.6 - 7.3 21.6 - - - -
Min 35.8 28.0 23 7.0 30.1 - 1.3 5.2 - 35.6 38.2 9.9